createdAt,value
2024-02-28T00:02:04.776Z,29.20
2024-02-28T00:04:31.818Z,25.73
2024-02-28T00:06:58.747Z,24.83
2024-02-28T00:09:25.732Z,25.98
2024-02-28T00:11:52.280Z,25.80
2024-02-28T00:14:19.230Z,23.13
2024-02-28T00:16:47.329Z,25.73
2024-02-28T00:19:14.255Z,22.95
2024-02-28T00:21:42.404Z,25.50
2024-02-28T00:24:10.155Z,27.10
2024-02-28T00:26:37.552Z,26.40
2024-02-28T00:29:04.316Z,23.98
2024-02-28T00:31:30.924Z,25.05
2024-02-28T00:33:57.512Z,28.13
2024-02-28T00:36:24.268Z,27.85
2024-02-28T00:38:50.978Z,27.17
2024-02-28T00:41:17.580Z,26.80
2024-02-28T00:43:44.239Z,33.50
2024-02-28T00:46:13.492Z,26.83
2024-02-28T00:48:40.624Z,29.27
2024-02-28T00:51:09.313Z,28.70
2024-02-28T00:53:36.016Z,26.65
2024-02-28T00:56:02.676Z,27.50
2024-02-28T00:58:31.480Z,22.88
2024-02-28T01:00:58.730Z,23.85
2024-02-28T01:03:25.573Z,28.50
2024-02-28T01:05:52.761Z,28.73
2024-02-28T01:08:19.895Z,28.52
2024-02-28T01:10:47.062Z,27.35
2024-02-28T01:13:13.997Z,27.42
2024-02-28T01:15:42.819Z,28.00
2024-02-28T01:18:10.918Z,26.90
2024-02-28T01:20:37.762Z,27.05
2024-02-28T01:23:04.690Z,27.85
2024-02-28T01:25:31.243Z,31.90
2024-02-28T01:28:01.235Z,29.90
2024-02-28T01:30:28.374Z,27.73
2024-02-28T01:32:55.485Z,26.70
2024-02-28T01:35:22.295Z,30.02
2024-02-28T01:37:49.031Z,26.10
2024-02-28T01:40:16.953Z,24.88
2024-02-28T01:42:43.538Z,26.73
2024-02-28T01:45:14.876Z,25.83
2024-02-28T01:47:43.517Z,25.58
2024-02-28T01:50:11.896Z,29.60
2024-02-28T01:52:40.303Z,27.08
2024-02-28T01:55:07.841Z,28.02
2024-02-28T01:57:35.043Z,30.10
2024-02-28T02:00:02.079Z,30.80
2024-02-28T02:02:31.288Z,27.63
2024-02-28T02:04:59.094Z,30.95
2024-02-28T02:07:26.733Z,27.35
2024-02-28T02:09:54.291Z,29.60
2024-02-28T02:12:21.238Z,28.33
2024-02-28T02:14:51.065Z,32.80
2024-02-28T02:17:17.773Z,29.58
2024-02-28T02:19:44.773Z,30.52
2024-02-28T02:22:14.604Z,30.52
2024-02-28T02:24:41.594Z,28.83
2024-02-28T02:27:08.805Z,30.55
2024-02-28T02:29:35.514Z,28.50
2024-02-28T02:32:02.295Z,26.25
2024-02-28T02:34:29.175Z,31.10
2024-02-28T02:36:55.984Z,27.45
2024-02-28T02:39:22.727Z,31.30
2024-02-28T02:41:49.333Z,28.90
2024-02-28T02:44:36.187Z,27.70
2024-02-28T02:47:23.045Z,26.95
2024-02-28T02:50:09.784Z,32.95
2024-02-28T02:52:56.361Z,29.00
2024-02-28T02:55:42.868Z,25.80
2024-02-28T02:58:29.568Z,26.42
2024-02-28T03:00:56.498Z,28.70
2024-02-28T03:03:23.233Z,28.90
2024-02-28T03:05:49.821Z,25.40
2024-02-28T03:08:16.607Z,27.70
2024-02-28T03:10:43.560Z,28.25
2024-02-28T03:13:10.638Z,29.15
2024-02-28T03:15:37.278Z,25.42
2024-02-28T03:18:04.933Z,25.48
2024-02-28T03:20:31.581Z,29.38
2024-02-28T03:22:58.320Z,25.80
2024-02-28T03:25:25.144Z,36.03
2024-02-28T03:27:52.065Z,33.60
2024-02-28T03:30:19.147Z,32.17
2024-02-28T03:32:45.743Z,36.42
2024-02-28T03:35:12.391Z,37.95
2024-02-28T03:37:40.080Z,30.10
2024-02-28T03:40:07.446Z,34.55
2024-02-28T03:42:34.290Z,37.55
2024-02-28T03:45:01.091Z,35.30
2024-02-28T03:47:27.864Z,28.52
2024-02-28T03:49:58.324Z,39.05
2024-02-28T03:52:25.182Z,33.17
2024-02-28T03:54:53.292Z,32.53
2024-02-28T03:57:19.904Z,31.63
2024-02-28T03:59:46.510Z,31.25
2024-02-28T04:02:13.029Z,32.53
2024-02-28T04:04:39.743Z,34.05
2024-02-28T04:07:07.093Z,34.78
2024-02-28T04:09:33.648Z,28.30
2024-02-28T04:12:00.278Z,31.38
2024-02-28T04:14:27.117Z,33.58
2024-02-28T04:16:54.302Z,34.90
2024-02-28T04:19:20.932Z,32.28
2024-02-28T04:21:47.920Z,31.10
2024-02-28T04:24:16.858Z,38.85
2024-02-28T04:26:44.579Z,38.85
2024-02-28T04:29:15.416Z,36.17
2024-02-28T04:31:42.244Z,38.53
2024-02-28T04:34:08.837Z,32.97
2024-02-28T04:36:35.542Z,35.58
2024-02-28T04:39:05.319Z,33.42
2024-02-28T04:41:31.912Z,40.47
2024-02-28T04:43:58.875Z,39.42
2024-02-28T04:46:25.655Z,37.35
2024-02-28T04:48:52.276Z,36.28
2024-02-28T04:51:19.220Z,38.67
2024-02-28T04:53:45.983Z,30.80
2024-02-28T04:56:12.619Z,34.45
2024-02-28T04:58:39.582Z,35.58
2024-02-28T05:01:06.426Z,37.35
2024-02-28T05:03:33.135Z,33.95
2024-02-28T05:06:00.037Z,37.45
2024-02-28T05:08:28.433Z,43.53
2024-02-28T05:10:55.172Z,41.90
2024-02-28T05:13:23.477Z,43.40
2024-02-28T05:15:50.318Z,38.50
2024-02-28T05:18:17.701Z,46.40
2024-02-28T05:20:44.522Z,41.85
2024-02-28T05:23:11.011Z,45.90
2024-02-28T05:25:37.956Z,44.63
2024-02-28T05:28:04.867Z,40.90
2024-02-28T05:30:31.703Z,46.42
2024-02-28T05:32:58.526Z,49.38
2024-02-28T05:35:25.091Z,41.13
2024-02-28T05:37:55.757Z,41.28
2024-02-28T05:40:22.580Z,45.03
2024-02-28T05:42:49.121Z,44.25
2024-02-28T05:45:16.097Z,42.15
2024-02-28T05:47:42.648Z,47.15
2024-02-28T05:50:11.168Z,45.25
2024-02-28T05:52:38.095Z,44.03
2024-02-28T05:55:05.455Z,43.53
2024-02-28T05:57:32.197Z,39.65
2024-02-28T05:59:58.804Z,46.75
2024-02-28T06:02:25.376Z,40.90
2024-02-28T06:04:52.276Z,46.03
2024-02-28T06:07:18.767Z,44.33
2024-02-28T06:09:45.690Z,45.97
2024-02-28T06:12:12.858Z,45.50
2024-02-28T06:14:39.327Z,49.92
2024-02-28T06:17:06.200Z,51.72
2024-02-28T06:19:32.831Z,52.33
2024-02-28T06:21:59.461Z,45.05
2024-02-28T06:24:26.153Z,50.08
2024-02-28T06:26:52.949Z,51.05
2024-02-28T06:29:19.547Z,49.95
2024-02-28T06:31:53.905Z,52.45
2024-02-28T06:34:20.614Z,51.08
2024-02-28T06:36:47.313Z,54.00
2024-02-28T06:39:13.998Z,54.47
2024-02-28T06:41:40.597Z,48.47
2024-02-28T06:44:08.792Z,48.95
2024-02-28T06:46:35.632Z,58.88
2024-02-28T06:49:03.702Z,49.08
2024-02-28T06:51:30.525Z,47.72
2024-02-28T06:53:57.196Z,52.58
2024-02-28T06:56:23.765Z,52.42
2024-02-28T06:58:50.359Z,51.72
2024-02-28T07:01:17.048Z,51.78
2024-02-28T07:03:43.761Z,60.85
2024-02-28T07:06:10.854Z,56.63
2024-02-28T07:08:38.149Z,56.35
2024-02-28T07:11:04.841Z,57.10
2024-02-28T07:13:31.526Z,52.95
2024-02-28T07:15:58.405Z,55.67
2024-02-28T07:18:26.802Z,55.42
2024-02-28T07:20:53.448Z,54.13
2024-02-28T07:23:19.982Z,51.10
2024-02-28T07:25:46.634Z,54.30
2024-02-28T07:28:13.542Z,52.53
2024-02-28T07:30:40.648Z,48.63
2024-02-28T07:33:07.314Z,42.88
2024-02-28T07:35:34.279Z,48.20
2024-02-28T07:38:01.137Z,44.53
2024-02-28T07:40:27.908Z,50.58
2024-02-28T07:42:54.570Z,47.13
2024-02-28T07:45:21.179Z,47.75
2024-02-28T07:47:47.752Z,48.92
2024-02-28T07:50:14.574Z,48.72
2024-02-28T07:52:41.167Z,52.00
2024-02-28T07:55:08.184Z,48.65
2024-02-28T07:57:34.870Z,42.88
2024-02-28T08:00:01.959Z,46.10
2024-02-28T08:02:40.290Z,47.03
2024-02-28T08:05:08.805Z,40.42
2024-02-28T08:07:35.785Z,40.92
2024-02-28T08:10:02.745Z,37.53
2024-02-28T08:12:29.338Z,40.03
2024-02-28T08:14:56.072Z,35.85
2024-02-28T08:17:22.589Z,37.47
2024-02-28T08:19:49.164Z,39.45
2024-02-28T08:22:15.880Z,43.30
2024-02-28T08:24:42.890Z,32.15
2024-02-28T08:27:09.568Z,37.80
2024-02-28T08:29:36.828Z,32.97
2024-02-28T08:32:04.284Z,29.95
2024-02-28T08:34:31.018Z,32.83
2024-02-28T08:36:57.736Z,33.25
2024-02-28T08:39:24.835Z,34.55
2024-02-28T08:41:51.474Z,36.05
2024-02-28T08:44:19.101Z,32.83
2024-02-28T08:46:48.037Z,37.20
2024-02-28T08:49:15.278Z,38.40
2024-02-28T08:51:42.359Z,35.22
2024-02-28T08:54:09.602Z,42.92
2024-02-28T08:56:38.232Z,35.72
2024-02-28T08:59:06.576Z,32.95
2024-02-28T09:01:35.000Z,36.95
2024-02-28T09:04:01.972Z,33.25
2024-02-28T09:06:28.917Z,36.17
2024-02-28T09:08:55.606Z,34.83
2024-02-28T09:11:22.974Z,35.10
2024-02-28T09:13:49.472Z,32.13
2024-02-28T09:16:16.096Z,34.75
2024-02-28T09:18:43.333Z,35.65
2024-02-28T09:21:10.224Z,33.28
2024-02-28T09:23:37.098Z,33.90
2024-02-28T09:26:06.780Z,34.72
2024-02-28T09:28:33.658Z,31.17
2024-02-28T09:31:01.091Z,38.08
2024-02-28T09:33:29.225Z,35.05
2024-02-28T09:35:55.897Z,29.83
2024-02-28T09:38:23.133Z,35.72
2024-02-28T09:40:50.101Z,29.08
2024-02-28T09:43:25.639Z,30.80
2024-02-28T09:45:52.662Z,31.52
2024-02-28T09:48:20.175Z,36.30
2024-02-28T09:50:47.065Z,35.97
2024-02-28T09:53:13.629Z,32.92
2024-02-28T09:55:40.355Z,34.67
2024-02-28T09:58:08.994Z,33.47
2024-02-28T10:00:36.473Z,28.45
2024-02-28T10:03:05.241Z,31.65
2024-02-28T10:05:34.405Z,32.95
2024-02-28T10:08:00.949Z,32.97
2024-02-28T10:10:28.643Z,34.95
2024-02-28T10:12:55.516Z,33.95
2024-02-28T10:15:23.141Z,33.45
2024-02-28T10:17:50.112Z,30.65
2024-02-28T10:20:16.806Z,31.65
2024-02-28T10:22:43.598Z,30.45
2024-02-28T10:25:10.596Z,30.08
2024-02-28T10:27:37.369Z,31.50
2024-02-28T10:30:08.557Z,29.17
2024-02-28T10:32:37.170Z,28.45
2024-02-28T10:35:04.732Z,31.35
2024-02-28T10:37:32.448Z,28.58
2024-02-28T10:39:59.591Z,30.92
2024-02-28T10:42:31.677Z,29.58
2024-02-28T10:45:10.299Z,31.73
2024-02-28T10:47:51.393Z,27.35
2024-02-28T10:50:18.837Z,29.58
2024-02-28T10:52:51.901Z,28.98
2024-02-28T10:55:26.478Z,27.13
2024-02-28T10:58:02.525Z,23.85
2024-02-28T11:00:29.623Z,29.73
2024-02-28T11:02:59.310Z,29.23
2024-02-28T11:05:36.777Z,29.20
2024-02-28T11:08:03.450Z,27.40
2024-02-28T11:10:36.502Z,29.05
2024-02-28T11:13:03.170Z,27.10
2024-02-28T11:15:29.957Z,26.83
2024-02-28T11:18:08.071Z,30.48
2024-02-28T11:20:35.240Z,25.48
2024-02-28T11:23:01.815Z,25.38
2024-02-28T11:25:28.411Z,24.33
2024-02-28T11:27:55.096Z,27.55
2024-02-28T11:30:22.800Z,22.85
2024-02-28T11:32:49.501Z,25.00
2024-02-28T11:35:16.483Z,23.48
2024-02-28T11:37:47.570Z,22.90
2024-02-28T11:40:15.331Z,22.60
2024-02-28T11:42:41.973Z,23.20
2024-02-28T11:45:12.231Z,21.15
2024-02-28T11:47:38.875Z,19.63
2024-02-28T11:50:09.426Z,20.38
2024-02-28T11:52:37.470Z,22.50
2024-02-28T11:55:05.439Z,25.20
2024-02-28T11:57:34.745Z,21.55
2024-02-28T12:00:10.461Z,21.57
2024-02-28T12:02:37.380Z,20.60
2024-02-28T12:05:07.399Z,25.27
2024-02-28T12:07:34.105Z,23.90
2024-02-28T12:10:01.302Z,21.45
2024-02-28T12:12:31.201Z,23.02
2024-02-28T12:15:01.406Z,27.73
2024-02-28T12:17:28.137Z,24.08
2024-02-28T12:19:56.301Z,23.63
2024-02-28T12:22:23.323Z,23.35
2024-02-28T12:24:49.888Z,22.20
2024-02-28T12:27:16.825Z,19.70
2024-02-28T12:29:43.390Z,22.17
2024-02-28T12:32:10.686Z,20.02
2024-02-28T12:34:37.240Z,20.58
2024-02-28T12:37:05.422Z,22.08
2024-02-28T12:39:35.212Z,24.38
2024-02-28T12:42:02.233Z,20.70
2024-02-28T12:44:28.795Z,21.00
2024-02-28T12:46:55.353Z,18.63
2024-02-28T12:49:21.911Z,18.30
2024-02-28T12:51:50.426Z,23.88
2024-02-28T12:54:17.255Z,21.55
2024-02-28T12:56:44.394Z,22.45
2024-02-28T12:59:12.058Z,20.65
2024-02-28T13:01:39.262Z,21.23
2024-02-28T13:04:06.683Z,22.05
2024-02-28T13:06:33.518Z,19.83
2024-02-28T13:09:00.221Z,17.95
2024-02-28T13:11:27.049Z,20.63
2024-02-28T13:13:54.089Z,19.08
2024-02-28T13:16:22.898Z,20.05
2024-02-28T13:18:49.560Z,19.23
2024-02-28T13:21:16.483Z,20.88
2024-02-28T13:23:44.320Z,17.33
2024-02-28T13:26:18.985Z,18.02
2024-02-28T13:28:48.460Z,17.42
2024-02-28T13:31:17.484Z,16.88
2024-02-28T13:33:44.196Z,17.50
2024-02-28T13:36:10.887Z,15.88
2024-02-28T13:38:38.111Z,18.23
2024-02-28T13:41:05.117Z,15.65
2024-02-28T13:43:32.013Z,13.38
2024-02-28T13:46:01.592Z,17.25
2024-02-28T13:48:30.161Z,14.73
2024-02-28T13:50:57.425Z,16.40
2024-02-28T13:53:25.801Z,18.02
2024-02-28T13:55:53.152Z,13.93
2024-02-28T13:58:19.864Z,18.98
2024-02-28T14:00:48.531Z,13.55
2024-02-28T14:03:16.034Z,14.85
2024-02-28T14:05:42.941Z,14.45
2024-02-28T14:08:10.965Z,15.15
2024-02-28T14:10:38.379Z,15.05
2024-02-28T14:13:05.487Z,15.68
2024-02-28T14:15:32.241Z,14.75
2024-02-28T14:17:59.134Z,15.63
2024-02-28T14:20:25.842Z,16.23
2024-02-28T14:22:53.178Z,15.25
2024-02-28T14:25:22.256Z,17.70
2024-02-28T14:27:49.441Z,15.68
2024-02-28T14:30:16.188Z,15.30
2024-02-28T14:32:44.574Z,13.73
2024-02-28T14:35:12.171Z,12.20
2024-02-28T14:37:40.935Z,14.05
2024-02-28T14:40:12.116Z,14.40
2024-02-28T14:42:40.760Z,13.15
2024-02-28T14:45:09.640Z,15.77
2024-02-28T14:47:37.461Z,16.10
2024-02-28T14:50:11.369Z,15.25
2024-02-28T14:52:42.583Z,14.85
2024-02-28T14:55:10.321Z,13.88
2024-02-28T14:57:40.637Z,13.43
2024-02-28T15:00:15.222Z,12.30
2024-02-28T15:02:42.822Z,12.57
2024-02-28T15:05:09.619Z,12.80
2024-02-28T15:07:37.145Z,12.70
2024-02-28T15:10:06.083Z,12.30
2024-02-28T15:12:34.643Z,11.80
2024-02-28T15:15:04.081Z,16.63
2024-02-28T15:17:31.163Z,12.00
2024-02-28T15:19:57.724Z,12.98
2024-02-28T15:22:24.588Z,12.13
2024-02-28T15:24:51.471Z,13.40
2024-02-28T15:27:18.479Z,11.20
2024-02-28T15:29:45.118Z,11.32
2024-02-28T15:32:11.733Z,10.93
2024-02-28T15:34:39.071Z,10.20
2024-02-28T15:37:06.064Z,10.68
2024-02-28T15:39:32.940Z,11.75
2024-02-28T15:42:01.764Z,9.00
2024-02-28T15:44:28.617Z,8.82
2024-02-28T15:46:55.219Z,9.52
2024-02-28T15:49:29.056Z,8.85
2024-02-28T15:52:04.543Z,12.38
2024-02-28T15:54:31.225Z,10.18
2024-02-28T15:57:00.837Z,8.60
2024-02-28T15:59:27.641Z,12.07
2024-02-28T16:01:54.622Z,8.20
2024-02-28T16:04:21.261Z,14.30
2024-02-28T16:06:47.988Z,11.80
2024-02-28T16:09:15.895Z,11.27
2024-02-28T16:11:46.329Z,17.55
2024-02-28T16:16:41.677Z,14.60
2024-02-28T16:19:15.589Z,14.82
2024-02-28T16:24:17.364Z,13.93
2024-02-28T16:26:44.147Z,19.45
2024-02-28T16:29:10.944Z,17.38
2024-02-28T16:31:37.591Z,17.10
2024-02-28T16:34:05.267Z,17.27
2024-02-28T16:36:32.544Z,19.70
2024-02-28T16:38:59.546Z,20.35
2024-02-28T16:41:26.343Z,19.00
2024-02-28T16:43:56.139Z,19.38
2024-02-28T16:46:23.106Z,20.23
2024-02-28T16:48:49.814Z,25.50
2024-02-28T16:51:18.116Z,21.77
2024-02-28T16:53:46.235Z,19.48
2024-02-28T16:56:13.190Z,19.95
2024-02-28T16:58:44.006Z,24.77
2024-02-28T17:01:11.301Z,21.77
2024-02-28T17:03:38.314Z,21.55
2024-02-28T17:06:06.050Z,21.33
2024-02-28T17:08:36.389Z,21.60
2024-02-28T17:11:04.805Z,20.30
2024-02-28T17:13:32.265Z,19.30
2024-02-28T17:16:04.025Z,22.73
2024-02-28T17:18:31.699Z,21.45
2024-02-28T17:20:59.669Z,22.58
2024-02-28T17:23:29.069Z,20.45
2024-02-28T17:25:56.455Z,24.80
2024-02-28T17:28:23.467Z,21.23
2024-02-28T17:30:50.114Z,20.65
2024-02-28T17:33:17.129Z,20.92
2024-02-28T17:35:45.161Z,24.60
2024-02-28T17:38:12.003Z,14.85
2024-02-28T17:40:38.592Z,16.10
2024-02-28T17:43:05.571Z,16.52
2024-02-28T17:45:32.309Z,16.80
2024-02-28T17:47:59.468Z,14.00
2024-02-28T17:50:26.341Z,15.82
2024-02-28T17:52:53.064Z,13.18
2024-02-28T17:55:19.854Z,15.98
2024-02-28T17:57:47.373Z,15.88
2024-02-28T18:00:14.541Z,18.77
2024-02-28T18:02:42.346Z,20.08
2024-02-28T18:05:10.427Z,14.80
2024-02-28T18:07:37.521Z,16.08
2024-02-28T18:10:08.011Z,16.25
2024-02-28T18:12:35.020Z,17.65
2024-02-28T18:15:01.764Z,14.13
2024-02-28T18:17:29.250Z,19.85
2024-02-28T18:19:55.944Z,17.90
2024-02-28T18:22:22.822Z,15.95
2024-02-28T18:24:49.807Z,18.02
2024-02-28T18:27:16.362Z,16.38
2024-02-28T18:29:43.320Z,20.27
2024-02-28T18:32:10.260Z,20.05
2024-02-28T18:34:36.907Z,17.70
2024-02-28T18:37:05.090Z,15.20
2024-02-28T18:39:31.921Z,14.80
2024-02-28T18:41:59.758Z,15.32
2024-02-28T18:44:27.541Z,15.85
2024-02-28T18:46:54.739Z,18.73
2024-02-28T18:49:21.480Z,14.32
2024-02-28T18:51:48.130Z,15.35
2024-02-28T18:54:14.775Z,17.00
2024-02-28T18:56:41.691Z,17.85
2024-02-28T18:59:08.199Z,12.82
2024-02-28T19:01:34.862Z,16.17
2024-02-28T19:04:01.847Z,16.73
2024-02-28T19:06:28.559Z,21.90
2024-02-28T19:08:55.192Z,16.52
2024-02-28T19:11:22.294Z,16.55
2024-02-28T19:13:50.441Z,20.50
2024-02-28T19:16:19.047Z,17.92
2024-02-28T19:18:45.906Z,18.90
2024-02-28T19:21:12.640Z,14.65
2024-02-28T19:23:41.608Z,15.52
2024-02-28T19:26:08.544Z,16.58
2024-02-28T19:28:35.216Z,19.08
2024-02-28T19:31:03.184Z,16.48
2024-02-28T19:33:30.090Z,20.67
2024-02-28T19:35:56.962Z,17.63
2024-02-28T19:38:23.609Z,15.40
2024-02-28T19:40:50.328Z,15.30
2024-02-28T19:43:16.825Z,16.90
2024-02-28T19:45:43.892Z,17.63
2024-02-28T19:48:11.029Z,19.48
2024-02-28T19:50:37.603Z,18.15
2024-02-28T19:53:04.448Z,17.40
2024-02-28T19:55:31.211Z,20.35
2024-02-28T19:57:58.060Z,18.33
2024-02-28T20:00:24.634Z,17.80
2024-02-28T20:02:51.293Z,17.58
2024-02-28T20:05:21.020Z,19.08
2024-02-28T20:07:48.969Z,19.08
2024-02-28T20:10:17.120Z,17.63
2024-02-28T20:12:43.766Z,18.55
2024-02-28T20:15:10.726Z,20.70
2024-02-28T20:17:37.404Z,26.95
2024-02-28T20:20:05.289Z,24.70
2024-02-28T20:22:31.968Z,23.00
2024-02-28T20:24:58.783Z,17.92
2024-02-28T20:27:25.766Z,17.38
2024-02-28T20:29:52.351Z,20.50
2024-02-28T20:32:19.587Z,19.67
2024-02-28T20:34:46.177Z,16.73
2024-02-28T20:37:12.937Z,19.65
2024-02-28T20:39:40.381Z,18.42
2024-02-28T20:42:07.425Z,17.65
2024-02-28T20:44:34.032Z,21.42
2024-02-28T20:47:00.720Z,23.05
2024-02-28T20:49:27.350Z,20.48
2024-02-28T20:51:56.413Z,21.58
2024-02-28T20:54:23.093Z,18.85
2024-02-28T20:56:53.863Z,16.70
2024-02-28T20:59:27.515Z,20.65
2024-02-28T21:01:54.541Z,20.73
2024-02-28T21:04:22.993Z,19.33
2024-02-28T21:06:50.788Z,19.23
2024-02-28T21:09:17.830Z,18.95
2024-02-28T21:11:44.358Z,18.92
2024-02-28T21:14:11.262Z,22.05
2024-02-28T21:16:37.989Z,22.17
2024-02-28T21:19:04.665Z,20.88
2024-02-28T21:21:31.628Z,18.92
2024-02-28T21:23:58.542Z,18.95
2024-02-28T21:26:25.603Z,20.23
2024-02-28T21:28:52.249Z,20.33
2024-02-28T21:31:20.146Z,17.92
2024-02-28T21:33:46.895Z,20.85
2024-02-28T21:36:13.408Z,19.65
2024-02-28T21:38:40.123Z,17.98
2024-02-28T21:41:06.687Z,17.98
2024-02-28T21:43:33.580Z,18.27
2024-02-28T21:46:00.186Z,18.80
2024-02-28T21:48:26.850Z,23.40
2024-02-28T21:50:53.613Z,19.02
2024-02-28T21:53:20.170Z,19.52
2024-02-28T21:55:46.829Z,18.13
2024-02-28T21:58:15.630Z,20.40
2024-02-28T22:00:42.704Z,21.55
2024-02-28T22:03:09.257Z,20.85
2024-02-28T22:05:35.918Z,21.27
2024-02-28T22:08:04.210Z,22.42
2024-02-28T22:10:30.853Z,22.90
2024-02-28T22:12:58.105Z,19.63
2024-02-28T22:15:25.141Z,22.77
2024-02-28T22:17:52.006Z,20.48
2024-02-28T22:20:18.635Z,25.15
2024-02-28T22:22:45.340Z,22.45
2024-02-28T22:25:12.473Z,21.05
2024-02-28T22:27:40.019Z,22.48
2024-02-28T22:30:07.173Z,23.42
2024-02-28T22:32:35.350Z,22.45
2024-02-28T22:35:02.143Z,23.48
2024-02-28T22:37:28.834Z,22.48
2024-02-28T22:39:55.816Z,22.30
2024-02-28T22:42:22.813Z,25.10
2024-02-28T22:44:49.708Z,26.70
2024-02-28T22:47:16.632Z,25.17
2024-02-28T22:49:43.347Z,24.88
2024-02-28T22:52:10.345Z,27.27
2024-02-28T22:54:37.097Z,26.02
2024-02-28T22:57:04.190Z,24.35
2024-02-28T22:59:30.815Z,25.33
2024-02-28T23:01:57.452Z,24.75
2024-02-28T23:04:24.421Z,25.80
2024-02-28T23:06:51.290Z,27.77
2024-02-28T23:09:18.153Z,25.10
2024-02-28T23:11:45.739Z,26.48
2024-02-28T23:14:13.006Z,22.85
2024-02-28T23:16:40.341Z,27.50
2024-02-28T23:19:07.120Z,28.98
2024-02-28T23:21:38.922Z,26.40
2024-02-28T23:24:07.375Z,30.05
2024-02-28T23:26:34.665Z,27.42
2024-02-28T23:29:01.345Z,26.80
2024-02-28T23:31:28.241Z,28.02
2024-02-28T23:33:55.073Z,30.40
2024-02-28T23:36:21.700Z,29.15
2024-02-28T23:38:48.366Z,28.23
2024-02-28T23:41:16.556Z,31.00
2024-02-28T23:43:43.318Z,27.10
2024-02-28T23:46:11.285Z,27.70
2024-02-28T23:48:38.162Z,26.83
2024-02-28T23:51:05.307Z,30.33
2024-02-28T23:53:31.907Z,29.63
2024-02-28T23:55:58.567Z,28.30
2024-02-28T23:58:25.837Z,27.60
